Time;durP1;ratioP1;P1;durP2;ratioP2;P2;SDS_P1;SDS_P2;PMS_P1;PMS_P2;Temp;Humidity;BMP_temperature;BMP_pressure;BME280_temperature;BME280_humidity;BME280_pressure;Samples;Min_cycle;Max_cycle;Signal;HPM_P1;HPM_P2
2021/10/19 00:01:12;;;;;;;17.02;12.50;;;9.60;99.90;;;;;;5022829;28;20622;-85
2021/10/19 00:03:39;;;;;;;16.17;12.17;;;9.70;99.90;;;;;;5021967;28;20204;-84
2021/10/19 00:06:06;;;;;;;17.07;13.00;;;9.80;99.90;;;;;;5020337;28;21047;-85
2021/10/19 00:08:34;;;;;;;19.20;13.53;;;9.80;99.90;;;;;;5021437;28;20535;-85
2021/10/19 00:11:01;;;;;;;14.63;11.52;;;9.70;99.90;;;;;;5022610;28;20550;-85
2021/10/19 00:13:27;;;;;;;20.10;14.20;;;9.80;99.90;;;;;;5021886;28;20245;-85
2021/10/19 00:15:54;;;;;;;18.80;13.40;;;9.90;99.90;;;;;;5025618;28;20278;-85
2021/10/19 00:18:21;;;;;;;19.45;13.88;;;9.80;99.90;;;;;;5024992;28;20563;-85
2021/10/19 00:20:48;;;;;;;16.38;12.60;;;9.70;99.90;;;;;;5024399;28;20300;-85
2021/10/19 00:23:15;;;;;;;22.87;12.63;;;9.70;99.90;;;;;;5024812;28;20273;-86
2021/10/19 00:25:43;;;;;;;19.38;13.40;;;9.70;99.90;;;;;;5025167;28;20540;-85
2021/10/19 00:28:10;;;;;;;16.85;11.73;;;9.60;99.90;;;;;;5025343;28;20209;-85
2021/10/19 00:30:37;;;;;;;16.45;12.10;;;9.60;99.90;;;;;;5024066;28;20317;-85
2021/10/19 00:33:04;;;;;;;17.63;12.60;;;9.60;99.90;;;;;;5030827;28;20221;-85
2021/10/19 00:35:30;;;;;;;15.63;11.30;;;9.50;99.90;;;;;;5037892;28;20464;-84
2021/10/19 00:37:57;;;;;;;16.80;12.77;;;9.60;99.90;;;;;;5035249;28;20267;-85
2021/10/19 00:40:24;;;;;;;17.83;12.68;;;9.60;99.90;;;;;;5026316;28;20488;-85
2021/10/19 00:42:53;;;;;;;16.88;12.35;;;9.50;99.90;;;;;;5026578;28;20258;-85
2021/10/19 00:45:19;;;;;;;15.23;11.90;;;9.50;99.90;;;;;;5034004;28;20668;-86
2021/10/19 00:47:51;;;;;;;17.87;12.40;;;9.40;99.90;;;;;;5024886;28;20437;-85
2021/10/19 00:50:18;;;;;;;17.73;12.63;;;9.40;99.90;;;;;;5023728;28;20570;-85
2021/10/19 00:52:45;;;;;;;14.68;12.27;;;9.40;99.90;;;;;;5026293;28;20540;-85
2021/10/19 00:55:13;;;;;;;15.70;11.70;;;9.40;99.90;;;;;;5023947;28;20213;-85
2021/10/19 00:57:40;;;;;;;13.93;11.33;;;9.40;99.90;;;;;;5023192;28;20302;-85
2021/10/19 01:00:10;;;;;;;16.75;13.38;;;9.40;99.90;;;;;;5023067;28;20468;-84
2021/10/19 01:02:38;;;;;;;17.20;11.50;;;9.50;99.90;;;;;;5023884;28;20254;-85
2021/10/19 01:05:05;;;;;;;15.18;11.45;;;9.50;99.90;;;;;;5024379;28;20209;-85
2021/10/19 01:07:32;;;;;;;13.40;10.40;;;9.40;99.90;;;;;;5024069;28;20216;-84
2021/10/19 01:09:59;;;;;;;17.25;12.73;;;9.50;99.90;;;;;;5024691;28;20245;-84
2021/10/19 01:12:26;;;;;;;15.27;11.47;;;9.50;99.90;;;;;;5025098;28;20316;-84
2021/10/19 01:14:53;;;;;;;18.58;11.50;;;9.40;99.90;;;;;;5028385;28;20466;-84
2021/10/19 01:17:22;;;;;;;15.00;11.13;;;9.40;99.90;;;;;;5028640;28;20207;-84
2021/10/19 01:19:50;;;;;;;16.00;12.03;;;9.40;99.90;;;;;;5020807;28;20556;-84
2021/10/19 01:22:17;;;;;;;15.30;11.50;;;9.40;99.90;;;;;;5019661;28;20441;-84
2021/10/19 01:24:44;;;;;;;16.15;10.80;;;9.40;99.90;;;;;;5026646;28;20603;-84
2021/10/19 01:27:11;;;;;;;15.50;10.93;;;9.30;99.90;;;;;;5030314;28;20213;-84
2021/10/19 01:29:38;;;;;;;14.13;10.48;;;9.30;99.90;;;;;;5024433;28;20573;-84
2021/10/19 01:32:07;;;;;;;15.30;11.80;;;9.30;99.90;;;;;;5023945;28;20217;-84
2021/10/19 01:34:35;;;;;;;15.73;11.10;;;9.30;99.90;;;;;;5023811;28;20213;-85
2021/10/19 01:37:04;;;;;;;13.50;10.35;;;9.30;99.90;;;;;;5024260;28;20456;-84
2021/10/19 01:39:31;;;;;;;15.23;10.70;;;9.30;99.90;;;;;;5028557;28;20235;-84
2021/10/19 01:41:57;;;;;;;14.07;10.82;;;9.30;99.90;;;;;;5024746;28;20453;-84
2021/10/19 01:44:24;;;;;;;12.17;9.13;;;9.40;99.90;;;;;;5021331;28;20214;-84
2021/10/19 01:46:51;;;;;;;14.57;11.03;;;9.40;99.90;;;;;;5028409;28;20529;-84
2021/10/19 01:49:18;;;;;;;11.80;9.23;;;9.40;99.90;;;;;;5031220;28;20523;-84
2021/10/19 01:51:45;;;;;;;14.50;9.80;;;9.40;99.90;;;;;;5029960;28;20271;-84
2021/10/19 01:54:13;;;;;;;12.02;9.40;;;9.40;99.90;;;;;;5035099;28;20693;-85
2021/10/19 01:56:40;;;;;;;12.25;10.13;;;9.40;99.90;;;;;;5025057;28;20217;-85
2021/10/19 01:59:07;;;;;;;13.13;11.27;;;9.50;99.90;;;;;;5023366;28;20240;-85
2021/10/19 02:01:38;;;;;;;10.88;9.15;;;9.60;99.90;;;;;;5023657;28;20484;-85
2021/10/19 02:04:05;;;;;;;14.20;9.70;;;9.60;99.90;;;;;;5024230;28;20198;-85
2021/10/19 02:06:32;;;;;;;12.20;9.50;;;9.60;99.90;;;;;;5023286;28;20452;-84
2021/10/19 02:08:58;;;;;;;14.13;9.90;;;9.50;99.90;;;;;;5026668;28;20514;-85
2021/10/19 02:11:27;;;;;;;15.80;10.23;;;9.20;99.90;;;;;;5029988;28;20233;-84
2021/10/19 02:13:54;;;;;;;13.60;8.97;;;9.80;99.90;;;;;;5018212;28;20276;-84
2021/10/19 02:16:20;;;;;;;16.70;12.00;;;9.70;99.90;;;;;;5016126;28;20493;-84
2021/10/19 02:18:47;;;;;;;14.10;10.90;;;9.70;99.90;;;;;;5016673;28;20551;-85
2021/10/19 02:21:15;;;;;;;18.00;12.03;;;9.80;99.90;;;;;;5017486;28;20453;-85
2021/10/19 02:23:42;;;;;;;19.27;13.77;;;9.80;99.90;;;;;;5016664;28;20472;-85
2021/10/19 02:26:08;;;;;;;21.00;13.93;;;9.80;99.90;;;;;;5017357;28;20475;-84
2021/10/19 02:28:36;;;;;;;18.90;14.07;;;9.70;99.90;;;;;;5017650;28;20686;-85
2021/10/19 02:31:06;;;;;;;17.10;13.37;;;9.70;99.90;;;;;;5018688;28;20198;-85
2021/10/19 02:33:33;;;;;;;21.70;14.30;;;9.90;99.90;;;;;;5019058;28;20497;-84
2021/10/19 02:36:00;;;;;;;19.93;14.50;;;10.10;99.90;;;;;;5019383;28;20431;-84
2021/10/19 02:38:27;;;;;;;19.27;13.27;;;10.30;99.90;;;;;;5023847;28;20424;-85
2021/10/19 02:40:53;;;;;;;17.43;13.37;;;10.50;99.90;;;;;;5034150;28;20545;-84
2021/10/19 02:43:20;;;;;;;17.40;13.03;;;10.40;99.90;;;;;;5036526;28;20430;-84
2021/10/19 02:45:48;;;;;;;15.90;11.40;;;10.20;99.90;;;;;;5027276;28;20890;-85
2021/10/19 02:48:15;;;;;;;16.03;10.87;;;10.10;99.90;;;;;;5024226;28;20447;-85
2021/10/19 02:50:42;;;;;;;13.07;9.30;;;10.20;99.90;;;;;;5019013;28;20479;-85
2021/10/19 02:53:09;;;;;;;11.63;8.63;;;10.30;99.90;;;;;;5016092;28;20576;-85
2021/10/19 02:55:36;;;;;;;10.03;7.93;;;10.30;99.90;;;;;;5016786;28;20460;-85
2021/10/19 02:58:03;;;;;;;11.50;8.53;;;10.30;99.90;;;;;;5016699;28;20427;-85
2021/10/19 03:00:30;;;;;;;11.57;8.60;;;10.30;99.90;;;;;;5020974;28;20518;-84
2021/10/19 03:02:58;;;;;;;11.03;8.20;;;10.30;99.90;;;;;;5016776;28;20828;-85
2021/10/19 03:05:25;;;;;;;13.93;9.50;;;10.40;99.90;;;;;;5017165;28;20428;-85
2021/10/19 03:07:51;;;;;;;11.93;8.80;;;10.50;99.90;;;;;;5017382;28;20441;-85
2021/10/19 03:10:18;;;;;;;12.00;9.53;;;10.50;99.90;;;;;;5017029;28;20501;-85
2021/10/19 03:12:45;;;;;;;10.90;8.17;;;10.40;99.90;;;;;;5018188;28;20478;-85
2021/10/19 03:15:12;;;;;;;15.50;8.77;;;10.40;99.90;;;;;;5018164;28;20557;-85
2021/10/19 03:17:39;;;;;;;12.13;8.67;;;10.30;99.90;;;;;;5020504;28;20486;-85
2021/10/19 03:20:08;;;;;;;12.43;9.03;;;10.30;99.90;;;;;;5019094;28;20458;-85
2021/10/19 03:22:35;;;;;;;11.03;9.03;;;10.50;99.90;;;;;;5018054;28;20491;-85
2021/10/19 03:25:02;;;;;;;12.80;9.43;;;10.40;99.90;;;;;;5018609;28;20449;-85
2021/10/19 03:27:29;;;;;;;14.23;10.03;;;10.50;99.90;;;;;;5018356;28;20962;-85
2021/10/19 03:29:56;;;;;;;13.97;10.03;;;10.50;99.90;;;;;;5032622;23;20596;-80
2021/10/19 03:32:22;;;;;;;13.40;8.53;;;10.50;99.90;;;;;;5016209;28;20445;-79
2021/10/19 03:34:49;;;;;;;11.10;8.50;;;10.70;99.90;;;;;;5015854;28;20466;-79
2021/10/19 03:37:17;;;;;;;13.23;11.10;;;10.50;99.90;;;;;;5015985;28;20548;-80
2021/10/19 03:39:44;;;;;;;16.73;10.60;;;10.50;99.90;;;;;;5016868;28;20480;-79
2021/10/19 03:42:11;;;;;;;14.43;9.10;;;10.50;99.90;;;;;;5019947;28;20457;-80
2021/10/19 03:44:38;;;;;;;10.47;8.70;;;10.50;99.90;;;;;;5020433;28;20425;-80
2021/10/19 03:47:05;;;;;;;9.00;7.60;;;10.60;99.90;;;;;;5020461;28;20453;-80
2021/10/19 03:49:31;;;;;;;10.17;7.90;;;10.70;99.90;;;;;;5025211;28;20475;-79
2021/10/19 03:51:58;;;;;;;15.37;11.90;;;10.70;99.90;;;;;;5039115;28;20506;-79
2021/10/19 03:54:26;;;;;;;14.63;11.90;;;10.90;99.90;;;;;;5035618;28;20477;-80
2021/10/19 03:56:53;;;;;;;13.97;11.93;;;10.60;99.90;;;;;;5022952;28;20445;-79
2021/10/19 03:59:20;;;;;;;14.70;11.17;;;10.70;99.90;;;;;;5039143;28;20468;-78
2021/10/19 04:01:47;;;;;;;10.87;7.80;;;10.70;99.90;;;;;;5035352;28;20490;-78
2021/10/19 04:04:14;;;;;;;9.20;6.80;;;10.80;99.90;;;;;;5036880;28;20518;-79
2021/10/19 04:06:41;;;;;;;12.07;6.60;;;10.90;99.90;;;;;;5025779;28;20461;-79
2021/10/19 04:09:07;;;;;;;10.00;7.43;;;10.90;99.90;;;;;;5020875;28;20448;-79
2021/10/19 04:11:36;;;;;;;11.60;7.63;;;10.90;99.90;;;;;;5019943;28;20484;-80
2021/10/19 04:14:02;;;;;;;10.47;8.33;;;10.90;99.90;;;;;;5020079;28;20543;-80
2021/10/19 04:16:29;;;;;;;12.97;10.50;;;11.10;99.90;;;;;;5019544;28;20536;-80
2021/10/19 04:18:56;;;;;;;16.27;11.20;;;11.10;99.90;;;;;;5019820;28;21126;-80
2021/10/19 04:21:23;;;;;;;16.63;11.57;;;11.00;99.90;;;;;;5019360;28;20768;-80
2021/10/19 04:23:50;;;;;;;17.40;12.10;;;11.00;99.90;;;;;;5019206;28;20877;-80
2021/10/19 04:26:17;;;;;;;15.57;11.57;;;10.90;99.90;;;;;;5019596;28;20463;-80
2021/10/19 04:28:45;;;;;;;18.13;11.90;;;10.90;99.90;;;;;;5019259;28;20489;-80
2021/10/19 04:31:12;;;;;;;15.47;10.70;;;10.70;99.90;;;;;;5018810;28;20477;-79
2021/10/19 04:33:39;;;;;;;19.37;12.20;;;10.80;99.90;;;;;;5018938;28;20493;-79
2021/10/19 04:36:06;;;;;;;15.77;10.50;;;10.80;99.90;;;;;;5019608;28;20469;-79
2021/10/19 04:38:33;;;;;;;14.00;11.10;;;10.70;99.90;;;;;;5019692;28;20791;-81
2021/10/19 04:41:00;;;;;;;13.97;10.33;;;10.70;99.90;;;;;;5019092;28;20477;-80
2021/10/19 04:43:27;;;;;;;12.63;10.60;;;10.70;99.90;;;;;;5019119;28;20454;-80
2021/10/19 04:45:56;;;;;;;14.23;10.77;;;10.90;99.90;;;;;;5029528;28;20500;-80
2021/10/19 04:48:23;;;;;;;15.57;11.10;;;11.10;99.90;;;;;;5019582;28;20482;-80
2021/10/19 04:50:50;;;;;;;16.17;11.27;;;11.10;99.90;;;;;;5019179;28;20473;-79
2021/10/19 04:53:17;;;;;;;18.40;11.37;;;11.10;99.90;;;;;;5019053;28;20488;-79
2021/10/19 04:55:47;;;;;;;17.97;10.70;;;11.10;99.90;;;;;;5019222;28;20819;-79
2021/10/19 04:58:14;;;;;;;12.50;10.17;;;11.00;99.90;;;;;;5018811;28;20473;-80
2021/10/19 05:00:41;;;;;;;13.83;9.80;;;10.90;99.90;;;;;;5018066;28;20564;-79
2021/10/19 05:03:09;;;;;;;14.10;11.30;;;10.90;99.90;;;;;;5017851;28;20514;-81
2021/10/19 05:05:36;;;;;;;15.03;11.50;;;11.00;99.90;;;;;;5019980;28;20812;-79
2021/10/19 05:08:03;;;;;;;14.50;10.30;;;11.00;99.90;;;;;;5019481;28;20504;-79
2021/10/19 05:10:30;;;;;;;18.10;11.33;;;11.00;99.90;;;;;;5019594;28;20443;-79
2021/10/19 05:12:57;;;;;;;14.90;11.83;;;10.90;99.90;;;;;;5018575;28;20529;-79
2021/10/19 05:15:24;;;;;;;19.33;12.50;;;10.90;99.90;;;;;;5018976;28;20468;-79
2021/10/19 05:17:51;;;;;;;17.10;11.67;;;10.80;99.90;;;;;;5018870;28;20956;-79
2021/10/19 05:20:20;;;;;;;19.33;11.83;;;10.90;99.90;;;;;;5019637;28;20558;-79
2021/10/19 05:22:47;;;;;;;16.70;10.43;;;10.80;99.90;;;;;;5020352;28;20423;-78
2021/10/19 05:25:15;;;;;;;16.10;11.50;;;10.90;99.90;;;;;;5018809;28;20450;-79
2021/10/19 05:27:43;;;;;;;15.27;9.93;;;10.90;99.90;;;;;;5019079;28;20457;-79
2021/10/19 05:30:11;;;;;;;14.17;11.17;;;11.00;99.90;;;;;;5017747;28;20547;-79
2021/10/19 05:32:37;;;;;;;15.77;10.23;;;11.10;99.90;;;;;;5018634;28;20461;-79
2021/10/19 05:35:05;;;;;;;14.67;10.93;;;11.20;99.90;;;;;;5018356;28;20485;-79
2021/10/19 05:37:33;;;;;;;15.27;9.20;;;11.30;99.90;;;;;;5018023;28;20427;-79
2021/10/19 05:40:00;;;;;;;12.37;9.63;;;11.20;99.90;;;;;;5018506;28;20464;-78
2021/10/19 05:42:27;;;;;;;10.73;7.30;;;11.20;99.90;;;;;;5017682;28;20449;-79
2021/10/19 05:44:54;;;;;;;9.47;7.57;;;11.20;99.90;;;;;;5020431;28;20430;-79
2021/10/19 05:47:20;;;;;;;9.23;7.10;;;11.40;99.90;;;;;;5017516;28;20521;-79
2021/10/19 05:49:47;;;;;;;13.43;8.27;;;11.40;99.90;;;;;;5016563;28;20451;-80
2021/10/19 05:52:14;;;;;;;11.30;9.30;;;11.40;99.90;;;;;;5016614;28;20424;-79
2021/10/19 05:54:42;;;;;;;13.03;8.10;;;11.30;99.90;;;;;;5017347;28;20479;-79
2021/10/19 05:57:09;;;;;;;11.43;6.27;;;11.40;99.90;;;;;;5019795;28;20466;-79
2021/10/19 05:59:36;;;;;;;11.33;9.43;;;11.70;99.90;;;;;;5019208;28;20474;-79
2021/10/19 06:02:03;;;;;;;14.60;11.20;;;11.60;99.90;;;;;;5022565;28;20447;-79
2021/10/19 06:04:30;;;;;;;13.77;11.50;;;11.50;99.90;;;;;;5024317;28;20799;-80
2021/10/19 06:06:58;;;;;;;16.30;12.50;;;11.50;99.90;;;;;;5018318;28;20519;-79
2021/10/19 06:09:26;;;;;;;16.70;12.60;;;11.40;99.90;;;;;;5018528;28;20454;-80
2021/10/19 06:11:55;;;;;;;15.40;11.20;;;11.40;99.90;;;;;;5018756;28;20464;-78
2021/10/19 06:14:23;;;;;;;18.07;12.10;;;11.40;99.90;;;;;;5017583;28;20482;-80
2021/10/19 06:16:50;;;;;;;17.23;13.03;;;11.40;99.90;;;;;;5017629;28;20523;-78
2021/10/19 06:19:17;;;;;;;19.90;12.70;;;11.40;99.90;;;;;;5017863;28;20459;-78
2021/10/19 06:21:44;;;;;;;17.97;12.33;;;11.40;99.90;;;;;;5018751;28;20428;-79
2021/10/19 06:24:11;;;;;;;16.70;11.33;;;11.50;99.90;;;;;;5017280;28;20446;-79
2021/10/19 06:26:39;;;;;;;16.23;12.30;;;11.60;99.90;;;;;;5018984;28;20429;-79
2021/10/19 06:29:10;;;;;;;14.10;10.27;;;11.70;99.90;;;;;;5025951;28;20458;-80
2021/10/19 06:31:37;;;;;;;12.00;9.40;;;11.70;99.90;;;;;;5026000;28;20836;-79
2021/10/19 06:34:04;;;;;;;12.50;7.63;;;11.80;99.90;;;;;;5029680;28;20465;-79
2021/10/19 06:36:31;;;;;;;12.03;8.17;;;11.90;99.90;;;;;;5022738;28;20532;-79
2021/10/19 06:38:58;;;;;;;11.30;8.83;;;12.00;99.90;;;;;;5018571;28;20546;-79
2021/10/19 06:41:25;;;;;;;11.60;8.33;;;12.10;99.90;;;;;;5017598;28;20937;-79
2021/10/19 06:43:52;;;;;;;10.70;7.97;;;12.20;99.90;;;;;;5017040;28;20921;-79
2021/10/19 06:46:20;;;;;;;10.70;7.93;;;12.30;99.90;;;;;;5016559;28;20472;-79
2021/10/19 06:48:47;;;;;;;14.77;9.70;;;12.30;99.90;;;;;;5016363;28;20446;-78
2021/10/19 06:51:14;;;;;;;12.70;9.20;;;12.40;99.90;;;;;;5018457;28;20489;-79
2021/10/19 06:53:41;;;;;;;16.90;11.37;;;12.50;99.90;;;;;;5018540;28;20818;-79
2021/10/19 06:56:08;;;;;;;14.13;9.77;;;12.70;99.90;;;;;;5017284;28;20450;-80
2021/10/19 06:58:35;;;;;;;23.63;13.20;;;12.80;99.90;;;;;;5017635;28;20450;-79
2021/10/19 07:01:05;;;;;;;18.13;12.40;;;12.60;99.90;;;;;;5017522;28;20437;-79
2021/10/19 07:03:33;;;;;;;17.67;13.10;;;12.20;99.90;;;;;;5030499;28;20428;-78
2021/10/19 07:06:05;;;;;;;27.53;14.57;;;12.00;99.90;;;;;;5033077;28;20474;-78
2021/10/19 07:08:33;;;;;;;16.83;12.17;;;12.10;99.90;;;;;;5021811;28;20435;-78
2021/10/19 07:11:00;;;;;;;22.10;12.50;;;12.20;99.90;;;;;;5028975;28;20470;-79
2021/10/19 07:13:27;;;;;;;19.40;12.50;;;12.10;99.90;;;;;;5031480;28;20474;-78
2021/10/19 07:15:54;;;;;;;18.90;12.43;;;12.00;99.90;;;;;;5021978;28;20489;-79
2021/10/19 07:18:22;;;;;;;16.40;12.10;;;12.00;99.90;;;;;;5022153;28;20429;-79
2021/10/19 07:20:51;;;;;;;18.13;11.80;;;12.00;99.90;;;;;;5028535;28;20568;-79
2021/10/19 07:23:18;;;;;;;16.33;11.33;;;11.90;99.90;;;;;;5021104;28;20550;-79
2021/10/19 07:25:46;;;;;;;22.73;12.33;;;12.00;99.90;;;;;;5021327;28;20460;-79
2021/10/19 07:28:13;;;;;;;17.67;11.13;;;12.20;99.90;;;;;;5021575;28;20425;-79
2021/10/19 07:30:40;;;;;;;18.03;10.97;;;12.30;99.90;;;;;;5021251;28;20473;-78
2021/10/19 07:33:07;;;;;;;19.40;10.70;;;12.20;99.90;;;;;;5022324;28;20416;-79
2021/10/19 07:35:34;;;;;;;17.63;11.50;;;12.10;99.90;;;;;;5019742;28;20528;-79
2021/10/19 07:38:02;;;;;;;14.77;11.30;;;12.20;99.90;;;;;;5021695;28;20453;-79
2021/10/19 07:40:29;;;;;;;22.30;11.33;;;12.50;99.90;;;;;;5020379;28;20828;-79
2021/10/19 07:42:57;;;;;;;18.70;11.70;;;12.40;99.90;;;;;;5020898;28;20457;-78
2021/10/19 07:45:26;;;;;;;15.53;11.93;;;12.50;99.90;;;;;;5022143;28;20439;-78
2021/10/19 07:47:53;;;;;;;21.07;12.80;;;12.40;99.90;;;;;;5020183;28;20462;-80
2021/10/19 07:50:21;;;;;;;24.33;12.40;;;12.50;99.90;;;;;;5020855;28;20979;-79
2021/10/19 07:52:50;;;;;;;19.40;12.33;;;12.60;99.90;;;;;;5021359;28;20788;-79
2021/10/19 07:55:18;;;;;;;18.93;14.60;;;12.50;99.90;;;;;;5021871;28;20459;-79
2021/10/19 07:57:47;;;;;;;16.67;11.80;;;12.50;99.90;;;;;;5021920;28;20436;-80
2021/10/19 08:00:16;;;;;;;18.33;12.77;;;12.80;99.90;;;;;;5021023;28;20535;-78
2021/10/19 08:02:43;;;;;;;14.43;10.33;;;12.80;99.90;;;;;;5020004;28;20771;-79
2021/10/19 08:05:14;;;;;;;15.10;10.93;;;12.80;99.90;;;;;;5020421;28;20459;-79
2021/10/19 08:07:41;;;;;;;18.43;11.47;;;12.80;99.90;;;;;;5022567;28;20433;-80
2021/10/19 08:10:09;;;;;;;12.63;8.67;;;12.80;99.90;;;;;;5020471;28;20445;-80
2021/10/19 08:12:37;;;;;;;21.00;11.47;;;12.70;99.90;;;;;;5020287;28;20454;-80
2021/10/19 08:15:05;;;;;;;17.40;11.10;;;12.40;99.90;;;;;;5020800;28;20471;-80
2021/10/19 08:17:32;;;;;;;15.33;11.23;;;12.40;99.90;;;;;;5021093;28;20821;-79
2021/10/19 08:20:00;;;;;;;17.20;12.03;;;12.40;99.90;;;;;;5020356;28;20452;-79
2021/10/19 08:22:28;;;;;;;15.87;12.27;;;12.40;99.90;;;;;;5020426;28;20428;-80
2021/10/19 08:24:55;;;;;;;15.80;12.50;;;12.40;99.90;;;;;;5020236;28;20436;-80
2021/10/19 08:27:22;;;;;;;19.53;12.23;;;12.50;99.90;;;;;;5019135;28;20951;-78
2021/10/19 08:29:50;;;;;;;19.17;12.07;;;12.60;99.90;;;;;;5019788;28;20482;-79
2021/10/19 08:32:17;;;;;;;16.10;11.57;;;12.60;99.90;;;;;;5020160;28;20983;-80
2021/10/19 08:34:44;;;;;;;16.67;12.10;;;12.80;99.90;;;;;;5019129;28;20890;-78
2021/10/19 08:37:11;;;;;;;15.50;10.53;;;13.00;99.90;;;;;;5026122;28;20443;-79
2021/10/19 08:39:38;;;;;;;16.30;10.90;;;13.40;99.90;;;;;;5026783;28;20451;-79
2021/10/19 08:42:05;;;;;;;22.70;11.30;;;13.50;99.90;;;;;;5020276;28;20851;-79
2021/10/19 08:44:33;;;;;;;17.00;11.30;;;13.60;99.90;;;;;;5019866;28;20454;-80
2021/10/19 08:47:01;;;;;;;13.00;10.00;;;13.60;99.90;;;;;;5019992;28;20441;-80
2021/10/19 08:49:28;;;;;;;15.03;11.03;;;13.60;99.90;;;;;;5020078;28;20497;-80
2021/10/19 08:51:55;;;;;;;14.70;11.40;;;13.50;99.90;;;;;;5020011;28;20511;-79
2021/10/19 08:54:23;;;;;;;14.07;10.93;;;13.30;99.90;;;;;;5020804;28;20521;-81
2021/10/19 08:56:50;;;;;;;15.93;10.97;;;13.10;99.90;;;;;;5023441;28;20437;-79
2021/10/19 08:59:22;;;;;;;15.83;11.57;;;13.30;99.90;;;;;;5028674;28;20445;-79
2021/10/19 09:01:49;;;;;;;21.20;11.67;;;13.30;99.90;;;;;;5033228;28;20439;-78
2021/10/19 09:04:17;;;;;;;14.97;10.90;;;13.30;99.90;;;;;;5035854;28;20521;-77
2021/10/19 09:06:44;;;;;;;14.23;11.93;;;13.20;99.90;;;;;;5033493;28;20448;-79
2021/10/19 09:09:14;;;;;;;18.20;12.30;;;13.20;99.90;;;;;;5027049;28;20469;-80
2021/10/19 09:11:43;;;;;;;16.23;12.27;;;13.30;99.90;;;;;;5020252;28;20462;-79
2021/10/19 09:14:10;;;;;;;14.40;11.87;;;13.40;99.90;;;;;;5021947;28;20488;-80
2021/10/19 09:16:42;;;;;;;16.77;11.30;;;13.50;99.90;;;;;;5019824;28;20486;-79
2021/10/19 09:19:10;;;;;;;15.80;11.17;;;13.50;99.90;;;;;;5017652;28;21031;-79
2021/10/19 09:21:43;;;;;;;14.03;10.90;;;13.60;99.90;;;;;;5018451;28;20461;-78
2021/10/19 09:24:18;;;;;;;15.97;9.70;;;13.70;99.90;;;;;;5017494;28;20445;-80
2021/10/19 09:26:56;;;;;;;11.27;7.53;;;13.70;99.90;;;;;;5019753;28;20424;-79
2021/10/19 09:29:24;;;;;;;10.57;6.93;;;13.70;99.90;;;;;;5019053;28;20817;-80
2021/10/19 09:31:53;;;;;;;12.67;7.47;;;13.80;99.90;;;;;;5018508;28;20924;-79
2021/10/19 09:34:19;;;;;;;9.23;6.30;;;13.90;99.90;;;;;;5017576;28;20429;-80
2021/10/19 09:36:50;;;;;;;11.03;6.70;;;14.00;99.90;;;;;;5018203;28;20872;-79
2021/10/19 09:39:32;;;;;;;10.80;6.77;;;14.10;99.90;;;;;;5017640;28;20795;-81
2021/10/19 09:41:59;;;;;;;12.73;7.03;;;14.20;99.90;;;;;;5017972;28;20865;-79
2021/10/19 09:44:26;;;;;;;9.83;5.40;;;14.30;99.90;;;;;;5017621;28;20433;-79
2021/10/19 09:46:53;;;;;;;10.40;5.40;;;14.40;99.90;;;;;;5017357;28;20900;-80
2021/10/19 09:49:21;;;;;;;10.53;5.43;;;14.40;99.90;;;;;;5017239;28;20565;-80
2021/10/19 09:51:50;;;;;;;8.20;5.27;;;14.50;99.90;;;;;;5017309;28;20425;-80
2021/10/19 09:54:21;;;;;;;9.60;6.13;;;14.60;99.90;;;;;;5022050;28;20486;-79
2021/10/19 09:56:48;;;;;;;7.97;5.20;;;14.60;99.90;;;;;;5023484;28;20466;-80
2021/10/19 09:59:17;;;;;;;9.90;5.00;;;14.70;99.90;;;;;;5016862;28;20451;-80
2021/10/19 10:01:44;;;;;;;6.83;4.73;;;14.60;99.90;;;;;;5017754;28;20462;-79
2021/10/19 10:04:11;;;;;;;5.17;4.00;;;14.50;99.90;;;;;;5017877;28;20458;-79
2021/10/19 10:06:40;;;;;;;8.67;5.27;;;14.60;99.90;;;;;;5016908;28;20533;-80
2021/10/19 10:09:08;;;;;;;6.93;4.40;;;14.70;99.90;;;;;;5017356;28;20949;-79
2021/10/19 10:11:38;;;;;;;5.40;3.97;;;14.70;99.90;;;;;;5016720;28;20425;-80
2021/10/19 10:14:05;;;;;;;7.13;4.13;;;14.80;99.90;;;;;;5017968;28;20438;-79
2021/10/19 10:16:43;;;;;;;5.50;4.27;;;14.90;99.90;;;;;;5021633;28;20577;-77
2021/10/19 10:19:12;;;;;;;7.70;4.27;;;14.90;99.90;;;;;;5027272;28;20459;-77
2021/10/19 10:21:46;;;;;;;7.40;5.07;;;14.90;99.90;;;;;;5025464;28;20425;-79
2021/10/19 10:24:15;;;;;;;7.30;5.33;;;15.00;99.90;;;;;;5017182;28;20485;-81
2021/10/19 10:26:42;;;;;;;10.10;4.67;;;15.10;99.90;;;;;;5024119;28;20430;-80
2021/10/19 10:29:10;;;;;;;7.10;4.47;;;15.10;99.90;;;;;;5028995;28;20441;-79
2021/10/19 10:31:49;;;;;;;7.57;5.20;;;15.20;99.90;;;;;;5021597;28;20442;-80
2021/10/19 10:34:16;;;;;;;6.60;3.60;;;15.30;99.90;;;;;;5016364;28;20514;-80
2021/10/19 10:36:47;;;;;;;7.50;4.83;;;15.40;99.90;;;;;;5016848;28;20943;-80
2021/10/19 10:39:15;;;;;;;8.00;4.63;;;15.30;99.90;;;;;;5016773;28;20474;-78
2021/10/19 10:41:44;;;;;;;16.27;5.90;;;15.40;99.90;;;;;;5016761;28;20427;-80
2021/10/19 10:44:12;;;;;;;5.50;3.40;;;15.40;99.90;;;;;;5016931;28;20451;-80
2021/10/19 10:46:40;;;;;;;5.10;3.30;;;15.40;99.90;;;;;;5020273;28;20466;-78
2021/10/19 10:49:11;;;;;;;5.17;3.40;;;15.40;99.90;;;;;;5020063;28;20513;-80
2021/10/19 10:51:40;;;;;;;11.20;4.60;;;15.20;99.90;;;;;;5022637;28;20416;-78
2021/10/19 10:54:07;;;;;;;4.93;3.43;;;15.10;99.90;;;;;;5021753;28;20450;-81
2021/10/19 10:56:44;;;;;;;8.27;4.47;;;15.20;99.90;;;;;;5020049;28;20486;-78
2021/10/19 10:59:11;;;;;;;5.23;3.67;;;15.30;99.90;;;;;;5019608;28;20477;-79
2021/10/19 11:01:38;;;;;;;6.43;4.27;;;15.30;99.90;;;;;;5021129;28;20794;-79
2021/10/19 11:04:07;;;;;;;5.90;3.90;;;15.40;99.90;;;;;;5021665;28;20469;-79
2021/10/19 11:06:36;;;;;;;6.50;4.00;;;15.60;99.90;;;;;;5022994;28;20424;-79
2021/10/19 11:09:07;;;;;;;10.00;5.00;;;15.60;99.90;;;;;;5020580;28;20472;-79
2021/10/19 11:11:37;;;;;;;7.57;4.90;;;15.50;99.90;;;;;;5025483;28;20425;-79
2021/10/19 11:14:07;;;;;;;7.50;4.00;;;15.50;99.90;;;;;;5025143;28;20500;-79
2021/10/19 11:16:38;;;;;;;6.37;4.50;;;15.50;99.90;;;;;;5023532;28;20900;-79
2021/10/19 11:19:12;;;;;;;5.13;3.77;;;15.60;99.90;;;;;;5020786;28;20431;-79
2021/10/19 11:21:39;;;;;;;5.43;3.70;;;15.60;99.90;;;;;;5024479;28;20441;-79
2021/10/19 11:24:06;;;;;;;6.27;4.23;;;15.60;99.90;;;;;;5021406;28;20887;-79
2021/10/19 11:26:34;;;;;;;4.83;3.23;;;15.70;99.90;;;;;;5020165;28;20465;-79
2021/10/19 11:29:02;;;;;;;10.83;4.53;;;15.70;99.90;;;;;;5020587;28;20451;-80
2021/10/19 11:31:32;;;;;;;7.60;5.13;;;15.80;99.90;;;;;;5021757;28;20435;-80
2021/10/19 11:34:00;;;;;;;9.70;4.10;;;15.80;99.90;;;;;;5020078;28;20545;-80
2021/10/19 11:36:27;;;;;;;4.97;3.40;;;15.80;99.90;;;;;;5019886;28;20486;-80
2021/10/19 11:38:57;;;;;;;9.33;4.90;;;15.90;99.90;;;;;;5019986;28;20877;-80
2021/10/19 11:41:27;;;;;;;5.80;3.60;;;15.80;99.90;;;;;;5019802;28;20534;-80
2021/10/19 11:43:57;;;;;;;4.90;3.77;;;15.90;99.90;;;;;;5020197;28;20451;-80
2021/10/19 11:46:26;;;;;;;6.27;4.13;;;16.00;99.90;;;;;;5020289;28;20534;-79
2021/10/19 11:48:57;;;;;;;5.97;3.57;;;16.00;99.90;;;;;;5019877;28;20468;-79
2021/10/19 11:51:26;;;;;;;7.70;4.50;;;16.10;99.90;;;;;;5020004;28;20437;-80
2021/10/19 11:53:57;;;;;;;5.50;3.40;;;16.10;99.90;;;;;;5030344;28;20454;-78
2021/10/19 11:56:24;;;;;;;5.50;3.47;;;16.20;99.90;;;;;;5028754;28;20573;-80
2021/10/19 11:58:52;;;;;;;6.47;3.67;;;16.10;99.90;;;;;;5019595;28;20426;-80
2021/10/19 12:01:21;;;;;;;7.70;4.27;;;16.20;99.90;;;;;;5018720;28;20447;-80
2021/10/19 12:03:57;;;;;;;7.60;4.27;;;16.30;99.90;;;;;;5019014;28;20447;-80
2021/10/19 12:06:26;;;;;;;7.10;4.70;;;16.40;99.90;;;;;;5019201;28;20428;-80
2021/10/19 12:08:53;;;;;;;6.67;3.90;;;16.40;99.90;;;;;;5019115;28;20472;-79
2021/10/19 12:11:23;;;;;;;7.47;4.60;;;16.30;99.90;;;;;;5019023;28;20451;-80
2021/10/19 12:13:54;;;;;;;6.27;3.60;;;16.40;99.90;;;;;;5019452;28;20414;-79
2021/10/19 12:16:25;;;;;;;6.23;4.10;;;16.40;99.90;;;;;;5018088;28;20452;-80
2021/10/19 12:18:52;;;;;;;5.07;3.40;;;16.40;99.90;;;;;;5018588;28;20427;-80
2021/10/19 12:21:20;;;;;;;6.23;3.40;;;16.30;99.90;;;;;;5019105;28;20911;-80
2021/10/19 12:23:52;;;;;;;5.80;3.90;;;16.40;99.90;;;;;;5019169;28;20417;-79
2021/10/19 12:26:20;;;;;;;6.07;3.50;;;16.40;99.90;;;;;;5018844;28;20455;-80
2021/10/19 12:28:50;;;;;;;6.40;3.47;;;16.40;99.90;;;;;;5020513;28;20459;-80
2021/10/19 12:31:18;;;;;;;6.57;3.70;;;16.40;99.90;;;;;;5026051;28;20428;-79
2021/10/19 12:33:44;;;;;;;6.03;3.70;;;16.40;99.90;;;;;;5027595;28;20833;-78
2021/10/19 12:36:11;;;;;;;5.33;3.60;;;16.40;99.90;;;;;;5028169;28;20566;-79
2021/10/19 12:38:41;;;;;;;5.33;3.60;;;16.20;99.90;;;;;;5029481;28;20454;-78